createdAt,value
2023-04-29T00:02:16.381Z,8.88
2023-04-29T00:04:43.120Z,9.32
2023-04-29T00:07:09.648Z,9.25
2023-04-29T00:09:37.557Z,10.23
2023-04-29T00:12:04.036Z,8.90
2023-04-29T00:14:30.497Z,9.10
2023-04-29T00:16:57.203Z,9.73
2023-04-29T00:19:23.775Z,9.45
2023-04-29T00:21:50.179Z,9.15
2023-04-29T00:24:16.627Z,9.15
2023-04-29T00:26:43.040Z,9.23
2023-04-29T00:29:09.441Z,8.75
2023-04-29T00:31:37.210Z,8.30
2023-04-29T00:34:03.875Z,9.18
2023-04-29T00:36:31.920Z,9.38
2023-04-29T00:38:59.275Z,9.60
2023-04-29T00:41:26.129Z,9.90
2023-04-29T00:43:53.011Z,10.40
2023-04-29T00:46:19.851Z,12.70
2023-04-29T00:48:46.321Z,11.80
2023-04-29T00:51:13.668Z,11.48
2023-04-29T00:53:41.697Z,12.35
2023-04-29T00:56:08.696Z,13.25
2023-04-29T00:58:36.371Z,12.60
2023-04-29T01:01:06.360Z,13.60
2023-04-29T01:03:33.065Z,14.13
2023-04-29T01:06:24.109Z,12.95
2023-04-29T01:09:27.037Z,13.95
2023-04-29T01:12:06.701Z,14.02
2023-04-29T01:14:34.705Z,14.07
2023-04-29T01:17:10.150Z,13.32
2023-04-29T01:19:50.558Z,13.50
2023-04-29T01:22:21.746Z,13.65
2023-04-29T01:27:27.706Z,14.65
2023-04-29T01:30:12.611Z,16.17
2023-04-29T01:33:03.464Z,16.65
2023-04-29T01:36:00.716Z,15.88
2023-04-29T01:38:39.581Z,16.40
2023-04-29T01:41:10.450Z,16.27
2023-04-29T01:43:38.949Z,15.85
2023-04-29T01:46:19.876Z,16.73
2023-04-29T01:48:47.545Z,14.40
2023-04-29T01:51:14.436Z,14.75
2023-04-29T01:53:41.280Z,15.85
2023-04-29T01:56:08.157Z,16.00
2023-04-29T01:58:48.941Z,16.55
2023-04-29T02:01:33.814Z,17.45
2023-04-29T02:04:00.429Z,18.27
2023-04-29T02:06:28.015Z,18.92
2023-04-29T02:08:58.987Z,19.10
2023-04-29T02:11:25.567Z,18.17
2023-04-29T02:13:54.779Z,20.70
2023-04-29T02:16:22.059Z,19.10
2023-04-29T02:18:58.090Z,19.17
2023-04-29T02:21:24.533Z,20.90
2023-04-29T02:23:51.592Z,19.23
2023-04-29T02:26:18.006Z,19.98
2023-04-29T02:28:44.517Z,19.45
2023-04-29T02:31:10.965Z,20.98
2023-04-29T02:33:37.388Z,21.52
2023-04-29T02:36:04.188Z,21.42
2023-04-29T02:38:30.590Z,22.67
2023-04-29T02:40:57.143Z,23.05
2023-04-29T02:43:24.045Z,22.13
2023-04-29T02:45:50.490Z,21.92
2023-04-29T02:48:17.039Z,21.30
2023-04-29T02:50:43.499Z,20.23
2023-04-29T02:53:09.950Z,21.90
2023-04-29T02:55:36.516Z,22.58
2023-04-29T02:58:07.748Z,23.67
2023-04-29T03:00:34.192Z,26.45
2023-04-29T03:03:01.682Z,22.70
2023-04-29T03:05:28.386Z,24.20
2023-04-29T03:07:54.939Z,24.73
2023-04-29T03:10:21.741Z,27.17
2023-04-29T03:12:48.165Z,25.58
2023-04-29T03:15:15.671Z,27.80
2023-04-29T03:17:42.516Z,26.63
2023-04-29T03:20:10.619Z,28.10
2023-04-29T03:22:37.086Z,29.45
2023-04-29T03:25:04.477Z,29.10
2023-04-29T03:27:30.919Z,28.25
2023-04-29T03:29:57.548Z,29.25
2023-04-29T03:32:24.236Z,28.70
2023-04-29T03:34:51.122Z,31.35
2023-04-29T03:37:31.574Z,30.63
2023-04-29T03:40:12.216Z,31.05
2023-04-29T03:42:39.773Z,32.80
2023-04-29T03:45:07.042Z,34.90
2023-04-29T03:47:33.616Z,33.28
2023-04-29T03:50:00.675Z,33.35
2023-04-29T03:52:27.217Z,35.15
2023-04-29T03:54:59.246Z,34.22
2023-04-29T03:57:25.699Z,36.28
2023-04-29T03:59:53.656Z,35.33
2023-04-29T04:02:21.457Z,33.80
2023-04-29T04:04:48.218Z,34.67
2023-04-29T04:07:14.928Z,35.13
2023-04-29T04:10:07.766Z,35.30
2023-04-29T04:12:34.612Z,36.38
2023-04-29T04:15:01.277Z,36.00
2023-04-29T04:17:27.938Z,38.88
2023-04-29T04:19:54.585Z,37.40
2023-04-29T04:22:21.131Z,37.78
2023-04-29T04:25:04.606Z,36.85
2023-04-29T04:27:31.210Z,38.22
2023-04-29T04:30:01.132Z,39.28
2023-04-29T04:32:31.589Z,37.15
2023-04-29T04:34:58.532Z,37.40
2023-04-29T04:37:26.009Z,41.33
2023-04-29T04:39:55.992Z,42.20
2023-04-29T04:42:23.350Z,38.58
2023-04-29T04:44:53.915Z,40.10
2023-04-29T04:47:30.688Z,39.50
2023-04-29T04:50:04.380Z,42.35
2023-04-29T04:52:30.955Z,40.78
2023-04-29T04:55:15.202Z,43.72
2023-04-29T04:57:44.551Z,43.13
2023-04-29T05:00:11.909Z,43.30
2023-04-29T05:02:38.571Z,43.13
2023-04-29T05:05:05.728Z,42.50
2023-04-29T05:07:36.003Z,42.58
2023-04-29T05:10:06.470Z,41.85
2023-04-29T05:12:36.258Z,41.72
2023-04-29T05:15:04.400Z,42.97
2023-04-29T05:17:31.796Z,42.38
2023-04-29T05:19:58.881Z,43.92
2023-04-29T05:22:25.488Z,41.97
2023-04-29T05:24:52.873Z,41.97
2023-04-29T05:27:20.016Z,43.90
2023-04-29T05:29:47.180Z,41.83
2023-04-29T05:32:13.755Z,42.97
2023-04-29T05:34:40.406Z,43.20
2023-04-29T05:37:06.861Z,44.15
2023-04-29T05:39:41.721Z,43.78
2023-04-29T05:42:13.419Z,42.00
2023-04-29T05:44:47.095Z,41.70
2023-04-29T05:47:13.540Z,40.20
2023-04-29T05:49:40.344Z,40.08
2023-04-29T05:52:07.198Z,40.92
2023-04-29T05:54:39.376Z,41.50
2023-04-29T05:57:06.618Z,38.25
2023-04-29T05:59:33.698Z,39.03
2023-04-29T06:04:30.783Z,38.40
2023-04-29T06:07:09.209Z,36.65
2023-04-29T06:09:48.394Z,35.95
2023-04-29T06:12:14.881Z,34.22
2023-04-29T06:14:43.351Z,35.20
2023-04-29T06:17:11.344Z,33.50
2023-04-29T06:19:38.106Z,32.92
2023-04-29T06:22:04.560Z,32.97
2023-04-29T06:24:31.923Z,30.23
2023-04-29T06:26:58.523Z,31.67
2023-04-29T06:29:26.225Z,31.27
2023-04-29T06:31:53.131Z,29.33
2023-04-29T06:34:19.912Z,28.10
2023-04-29T06:37:09.226Z,28.00
2023-04-29T06:39:59.674Z,27.33
2023-04-29T06:42:45.309Z,27.20
2023-04-29T06:45:31.776Z,27.55
2023-04-29T06:48:04.523Z,27.55
2023-04-29T06:50:49.790Z,27.98
2023-04-29T06:53:16.207Z,32.85
2023-04-29T06:55:42.660Z,35.30
2023-04-29T06:58:09.079Z,34.15
2023-04-29T07:00:35.710Z,32.20
2023-04-29T07:03:02.660Z,33.30
2023-04-29T07:05:29.242Z,32.53
2023-04-29T07:07:55.680Z,33.17
2023-04-29T07:10:22.121Z,33.53
2023-04-29T07:12:48.549Z,31.38
2023-04-29T07:15:15.285Z,31.08
2023-04-29T07:17:41.768Z,32.55
2023-04-29T07:20:08.873Z,31.95
2023-04-29T07:22:35.932Z,31.92
2023-04-29T07:25:02.542Z,30.67
2023-04-29T07:27:29.549Z,31.48
2023-04-29T07:29:56.835Z,29.52
2023-04-29T07:32:23.347Z,30.92
2023-04-29T07:34:49.920Z,28.48
2023-04-29T07:37:16.665Z,29.83
2023-04-29T07:39:43.076Z,29.15
2023-04-29T07:42:10.148Z,27.63
2023-04-29T07:44:36.602Z,27.73
2023-04-29T07:47:03.023Z,25.60
2023-04-29T07:49:29.454Z,24.77
2023-04-29T07:51:55.981Z,24.35
2023-04-29T07:54:22.552Z,22.25
2023-04-29T07:56:49.172Z,20.77
2023-04-29T07:59:15.782Z,21.08
2023-04-29T08:01:42.557Z,21.52
2023-04-29T08:04:09.165Z,19.80
2023-04-29T08:06:45.455Z,19.67
2023-04-29T08:09:12.244Z,17.55
2023-04-29T08:11:43.150Z,18.50
2023-04-29T08:14:12.432Z,20.33
2023-04-29T08:16:39.251Z,18.20
2023-04-29T08:19:05.746Z,18.30
2023-04-29T08:21:32.318Z,19.83
2023-04-29T08:23:58.739Z,19.55
2023-04-29T08:26:25.416Z,20.20
2023-04-29T08:28:51.851Z,20.90
2023-04-29T08:31:20.121Z,21.23
2023-04-29T08:33:46.606Z,21.83
2023-04-29T08:36:13.032Z,24.60
2023-04-29T08:38:39.660Z,22.33
2023-04-29T08:41:09.672Z,24.27
2023-04-29T08:43:42.567Z,25.45
2023-04-29T08:46:10.036Z,25.17
2023-04-29T08:48:37.789Z,29.83
2023-04-29T08:51:04.566Z,30.58
2023-04-29T08:53:31.089Z,29.20
2023-04-29T08:56:01.975Z,33.00
2023-04-29T08:58:30.074Z,33.85
2023-04-29T09:00:57.041Z,35.15
2023-04-29T09:04:10.175Z,34.75
2023-04-29T09:06:36.652Z,35.20
2023-04-29T09:09:03.770Z,34.95
2023-04-29T09:11:30.933Z,33.78
2023-04-29T09:14:04.481Z,35.05
2023-04-29T09:16:31.112Z,33.70
2023-04-29T09:18:57.604Z,34.33
2023-04-29T09:21:28.932Z,33.08
2023-04-29T09:23:57.933Z,33.70
2023-04-29T09:26:25.454Z,33.83
2023-04-29T09:29:07.844Z,34.67
2023-04-29T09:31:34.314Z,33.80
2023-04-29T09:34:00.833Z,35.10
2023-04-29T09:36:46.847Z,34.75
2023-04-29T09:39:16.543Z,34.35
2023-04-29T09:42:02.664Z,31.17
2023-04-29T09:44:33.936Z,33.20
2023-04-29T09:47:06.628Z,33.45
2023-04-29T09:49:39.745Z,34.08
2023-04-29T09:52:11.612Z,34.63
2023-04-29T09:54:40.758Z,34.08
2023-04-29T09:57:09.299Z,34.08
2023-04-29T09:59:37.791Z,37.58
2023-04-29T10:02:15.546Z,36.40
2023-04-29T10:04:45.092Z,38.97
2023-04-29T10:07:16.110Z,36.03
2023-04-29T10:12:11.037Z,36.75
2023-04-29T10:14:45.446Z,35.80
2023-04-29T10:17:18.340Z,38.95
2023-04-29T10:19:54.256Z,37.50
2023-04-29T10:22:36.181Z,38.63
2023-04-29T10:25:05.930Z,39.35
2023-04-29T10:27:34.914Z,40.33
2023-04-29T10:30:04.911Z,39.88
2023-04-29T10:32:49.303Z,40.15
2023-04-29T10:35:23.235Z,38.90
2023-04-29T10:37:50.540Z,39.67
2023-04-29T10:40:18.403Z,40.47
2023-04-29T10:42:49.952Z,39.80
2023-04-29T10:45:27.602Z,37.95
2023-04-29T10:48:05.343Z,38.25
2023-04-29T10:50:33.398Z,37.65
2023-04-29T10:53:04.682Z,37.25
2023-04-29T10:55:31.831Z,38.30
2023-04-29T10:57:58.307Z,38.83
2023-04-29T11:00:29.242Z,36.35
2023-04-29T11:02:59.542Z,35.40
2023-04-29T11:05:37.129Z,35.83
2023-04-29T11:08:23.112Z,36.08
2023-04-29T11:10:54.052Z,33.08
2023-04-29T11:13:31.204Z,33.65
2023-04-29T11:16:11.860Z,33.42
2023-04-29T11:19:09.946Z,31.90
2023-04-29T11:21:37.525Z,30.65
2023-04-29T11:24:06.496Z,28.70
2023-04-29T11:26:36.652Z,29.10
2023-04-29T11:29:04.745Z,28.50
2023-04-29T11:31:32.347Z,27.98
2023-04-29T11:33:59.803Z,25.45
2023-04-29T11:36:27.456Z,24.55
2023-04-29T11:38:54.053Z,24.42
2023-04-29T11:41:21.911Z,24.05
2023-04-29T11:43:56.710Z,23.90
2023-04-29T11:46:23.290Z,24.65
2023-04-29T11:48:50.325Z,25.27
2023-04-29T11:51:18.893Z,23.35
2023-04-29T11:53:45.558Z,25.27
2023-04-29T11:56:12.352Z,23.55
2023-04-29T11:58:39.289Z,22.90
2023-04-29T12:01:05.923Z,25.63
2023-04-29T12:03:33.976Z,24.35
2023-04-29T12:06:01.939Z,23.90
2023-04-29T12:08:29.700Z,24.17
2023-04-29T12:10:58.576Z,22.92
2023-04-29T12:13:28.183Z,24.17
2023-04-29T12:15:56.168Z,21.67
2023-04-29T12:18:23.448Z,23.08
2023-04-29T12:20:51.477Z,21.33
2023-04-29T12:23:19.892Z,22.10
2023-04-29T12:25:54.196Z,20.30
2023-04-29T12:28:21.107Z,18.45
2023-04-29T12:30:48.897Z,17.67
2023-04-29T12:33:29.427Z,15.95
2023-04-29T12:35:57.841Z,16.13
2023-04-29T12:38:29.008Z,14.18
2023-04-29T12:41:01.274Z,14.77
2023-04-29T12:43:34.053Z,13.00
2023-04-29T12:46:04.140Z,13.25
2023-04-29T12:48:33.527Z,12.60
2023-04-29T12:51:01.375Z,12.27
2023-04-29T12:53:29.933Z,10.93
2023-04-29T12:55:56.820Z,8.32
2023-04-29T12:58:24.011Z,9.70
2023-04-29T13:00:50.483Z,7.47
2023-04-29T13:03:18.338Z,7.45
2023-04-29T13:05:48.513Z,6.35
2023-04-29T13:08:15.335Z,7.30
2023-04-29T13:10:42.821Z,7.18
2023-04-29T13:13:11.842Z,6.57
2023-04-29T13:15:39.206Z,7.50
2023-04-29T13:18:05.925Z,8.25
2023-04-29T13:20:40.952Z,8.23
2023-04-29T13:23:08.478Z,10.07
2023-04-29T13:25:34.953Z,9.63
2023-04-29T13:28:01.448Z,10.25
2023-04-29T13:30:27.861Z,10.65
2023-04-29T13:32:57.454Z,9.93
2023-04-29T13:35:29.505Z,11.05
2023-04-29T13:37:56.455Z,10.05
2023-04-29T13:40:22.890Z,11.65
2023-04-29T13:42:50.753Z,11.20
2023-04-29T13:45:28.600Z,11.13
2023-04-29T13:48:07.565Z,10.90
2023-04-29T13:53:41.302Z,10.95
2023-04-29T13:56:34.717Z,11.77
2023-04-29T14:01:48.107Z,11.60
2023-04-29T14:04:03.206Z,11.75
2023-04-29T14:06:32.425Z,11.27
2023-04-29T14:09:00.536Z,10.57
2023-04-29T14:11:28.646Z,11.05
2023-04-29T14:13:55.063Z,9.77
2023-04-29T14:16:21.681Z,9.65
2023-04-29T14:18:48.071Z,9.13
2023-04-29T14:21:14.552Z,9.10
2023-04-29T14:23:41.473Z,8.52
2023-04-29T14:26:26.520Z,8.90
2023-04-29T14:28:57.987Z,8.40
2023-04-29T14:31:28.817Z,8.87
2023-04-29T14:36:22.594Z,8.25
2023-04-29T14:38:49.242Z,8.43
2023-04-29T14:41:15.926Z,7.88
2023-04-29T14:43:42.715Z,8.00
2023-04-29T14:46:09.370Z,7.55
2023-04-29T14:48:36.022Z,6.90
2023-04-29T14:51:02.447Z,7.63
2023-04-29T14:53:28.867Z,7.68
2023-04-29T14:55:55.335Z,7.80
2023-04-29T14:58:21.752Z,8.60
2023-04-29T15:00:49.256Z,7.60
2023-04-29T15:03:22.020Z,9.02
2023-04-29T15:05:51.973Z,7.93
2023-04-29T15:08:19.476Z,8.60
2023-04-29T15:10:50.064Z,9.07
2023-04-29T15:13:16.586Z,7.95
2023-04-29T15:15:43.011Z,8.18
2023-04-29T15:18:09.569Z,8.80
2023-04-29T15:20:37.578Z,8.27
2023-04-29T15:23:05.456Z,7.78
2023-04-29T15:25:36.241Z,8.60
2023-04-29T15:28:05.723Z,8.90
2023-04-29T15:30:32.391Z,8.45
2023-04-29T15:32:58.865Z,7.88
2023-04-29T15:35:25.353Z,7.85
2023-04-29T15:37:51.746Z,9.40
2023-04-29T15:40:18.227Z,9.38
2023-04-29T15:42:44.640Z,10.30
2023-04-29T15:45:11.609Z,9.93
2023-04-29T15:47:38.210Z,8.65
2023-04-29T15:50:05.116Z,8.05
2023-04-29T15:52:31.506Z,8.43
2023-04-29T15:54:58.366Z,8.52
2023-04-29T15:57:25.829Z,8.40
2023-04-29T15:59:52.483Z,8.50
2023-04-29T16:02:20.399Z,8.57
2023-04-29T16:04:47.197Z,8.48
2023-04-29T16:07:13.654Z,8.65
2023-04-29T16:09:40.199Z,8.77
2023-04-29T16:12:06.755Z,8.57
2023-04-29T16:14:33.207Z,8.00
2023-04-29T16:17:00.471Z,7.60
2023-04-29T16:19:27.010Z,7.50
2023-04-29T16:21:53.433Z,8.07
2023-04-29T16:24:19.846Z,7.45
2023-04-29T16:26:48.013Z,7.50
2023-04-29T16:29:14.482Z,6.72
2023-04-29T16:31:40.936Z,6.93
2023-04-29T16:34:07.372Z,6.30
2023-04-29T16:36:33.785Z,6.03
2023-04-29T16:39:00.206Z,5.90
2023-04-29T16:41:26.632Z,5.93
2023-04-29T16:43:53.988Z,5.45
2023-04-29T16:46:20.492Z,5.10
2023-04-29T16:48:47.067Z,4.47
2023-04-29T16:51:13.457Z,5.20
2023-04-29T16:53:39.861Z,4.72
2023-04-29T16:56:06.273Z,4.40
2023-04-29T16:58:32.694Z,4.20
2023-04-29T17:00:59.280Z,4.38
2023-04-29T17:03:25.833Z,4.03
2023-04-29T17:05:52.613Z,4.15
2023-04-29T17:08:19.087Z,3.30
2023-04-29T17:10:45.542Z,4.25
2023-04-29T17:13:12.117Z,4.13
2023-04-29T17:15:38.530Z,3.85
2023-04-29T17:18:05.016Z,3.90
2023-04-29T17:20:31.622Z,3.85
2023-04-29T17:22:58.075Z,4.95
2023-04-29T17:25:24.480Z,3.90
2023-04-29T17:27:50.936Z,4.70
2023-04-29T17:30:17.346Z,3.88
2023-04-29T17:32:44.458Z,4.38
2023-04-29T17:35:11.579Z,3.72
2023-04-29T17:37:38.229Z,4.00
2023-04-29T17:40:05.206Z,3.28
2023-04-29T17:42:31.604Z,4.22
2023-04-29T17:44:58.007Z,3.92
2023-04-29T17:47:24.464Z,3.13
2023-04-29T17:49:51.859Z,3.50
2023-04-29T17:52:21.254Z,3.40
2023-04-29T17:54:48.608Z,3.65
2023-04-29T17:57:15.065Z,3.38
2023-04-29T17:59:41.554Z,3.30
2023-04-29T18:02:07.944Z,4.30
2023-04-29T18:04:34.466Z,3.30
2023-04-29T18:07:01.704Z,3.78
2023-04-29T18:09:28.175Z,4.40
2023-04-29T18:11:54.589Z,4.13
2023-04-29T18:14:21.392Z,4.03
2023-04-29T18:16:47.861Z,3.40
2023-04-29T18:19:14.311Z,3.45
2023-04-29T18:21:40.734Z,3.95
2023-04-29T18:24:07.141Z,3.92
2023-04-29T18:26:33.725Z,3.53
2023-04-29T18:29:00.150Z,4.13
2023-04-29T18:31:26.673Z,3.80
2023-04-29T18:33:53.114Z,3.60
2023-04-29T18:36:21.287Z,3.60
2023-04-29T18:38:47.785Z,3.28
2023-04-29T18:41:14.435Z,3.20
2023-04-29T18:43:41.257Z,3.63
2023-04-29T18:46:08.008Z,3.80
2023-04-29T18:48:35.972Z,3.45
2023-04-29T18:51:04.326Z,3.55
2023-04-29T18:53:31.740Z,3.92
2023-04-29T18:55:58.198Z,4.03
2023-04-29T18:58:26.680Z,4.25
2023-04-29T19:00:53.612Z,3.88
2023-04-29T19:03:20.542Z,4.07
2023-04-29T19:05:48.090Z,5.75
2023-04-29T19:08:16.365Z,4.90
2023-04-29T19:10:44.036Z,6.55
2023-04-29T19:13:11.134Z,7.03
2023-04-29T19:15:37.656Z,4.90
2023-04-29T19:18:04.919Z,4.63
2023-04-29T19:20:31.909Z,4.60
2023-04-29T19:22:58.351Z,4.80
2023-04-29T19:25:26.221Z,4.25
2023-04-29T19:27:53.117Z,8.75
2023-04-29T19:30:19.695Z,8.65
2023-04-29T19:32:46.616Z,9.40
2023-04-29T19:35:13.212Z,6.10
2023-04-29T19:37:40.319Z,5.47
2023-04-29T19:40:10.371Z,5.22
2023-04-29T19:42:37.419Z,4.93
2023-04-29T19:45:08.155Z,4.63
2023-04-29T19:47:34.843Z,4.38
2023-04-29T19:50:02.003Z,4.75
2023-04-29T19:52:29.679Z,4.35
2023-04-29T19:54:56.328Z,4.45
2023-04-29T19:57:22.782Z,4.47
2023-04-29T19:59:49.177Z,4.88
2023-04-29T20:02:15.752Z,5.40
2023-04-29T20:04:42.205Z,4.82
2023-04-29T20:07:08.608Z,6.45
2023-04-29T20:09:35.201Z,6.88
2023-04-29T20:12:02.732Z,7.10
2023-04-29T20:14:30.186Z,5.93
2023-04-29T20:16:59.674Z,5.65
2023-04-29T20:19:26.931Z,5.85
2023-04-29T20:21:53.685Z,7.53
2023-04-29T20:24:20.149Z,9.13
2023-04-29T20:26:46.589Z,5.60
2023-04-29T20:29:13.033Z,5.28
2023-04-29T20:31:39.480Z,5.32
2023-04-29T20:34:05.992Z,5.10
2023-04-29T20:36:32.433Z,5.10
2023-04-29T20:38:58.851Z,5.40
2023-04-29T20:41:27.923Z,4.47
2023-04-29T20:43:55.068Z,4.55
2023-04-29T20:46:23.563Z,5.15
2023-04-29T20:48:51.720Z,5.10
2023-04-29T20:51:18.157Z,5.13
2023-04-29T20:53:44.624Z,5.57
2023-04-29T20:56:11.111Z,5.28
2023-04-29T20:58:37.557Z,5.80
2023-04-29T21:01:04.039Z,5.57
2023-04-29T21:03:30.533Z,5.07
2023-04-29T21:05:57.110Z,5.88
2023-04-29T21:08:23.550Z,5.53
2023-04-29T21:10:49.967Z,5.63
2023-04-29T21:13:17.679Z,5.65
2023-04-29T21:15:45.850Z,5.40
2023-04-29T21:18:12.723Z,5.75
2023-04-29T21:20:39.217Z,5.55
2023-04-29T21:23:05.681Z,5.18
2023-04-29T21:25:32.151Z,5.82
2023-04-29T21:27:58.589Z,5.82
2023-04-29T21:30:25.909Z,6.18
2023-04-29T21:32:53.222Z,5.93
2023-04-29T21:35:19.728Z,6.13
2023-04-29T21:37:47.086Z,6.97
2023-04-29T21:40:14.374Z,6.63
2023-04-29T21:42:43.516Z,8.48
2023-04-29T21:45:12.801Z,8.32
2023-04-29T21:47:39.492Z,9.00
2023-04-29T21:50:07.702Z,8.90
2023-04-29T21:52:35.153Z,10.02
2023-04-29T21:55:03.423Z,7.47
2023-04-29T21:57:42.831Z,16.98
2023-04-29T22:00:20.645Z,9.85
2023-04-29T22:02:47.183Z,8.00
2023-04-29T22:05:13.622Z,8.85
2023-04-29T22:07:40.046Z,8.18
2023-04-29T22:10:07.046Z,8.75
2023-04-29T22:12:33.465Z,8.05
2023-04-29T22:14:59.874Z,8.13
2023-04-29T22:17:26.306Z,8.75
2023-04-29T22:19:53.007Z,8.85
2023-04-29T22:22:19.642Z,8.70
2023-04-29T22:24:46.062Z,8.70
2023-04-29T22:27:12.474Z,9.20
2023-04-29T22:29:39.371Z,8.85
2023-04-29T22:32:05.922Z,8.82
2023-04-29T22:34:32.375Z,9.23
2023-04-29T22:36:58.776Z,8.60
2023-04-29T22:39:25.258Z,7.78
2023-04-29T22:41:51.679Z,9.40
2023-04-29T22:44:18.082Z,10.32
2023-04-29T22:46:44.541Z,9.80
2023-04-29T22:49:10.967Z,8.68
2023-04-29T22:51:37.452Z,8.93
2023-04-29T22:54:03.926Z,8.55
2023-04-29T22:56:30.455Z,7.47
2023-04-29T22:58:56.900Z,7.57
2023-04-29T23:01:23.351Z,7.82
2023-04-29T23:03:49.778Z,6.75
2023-04-29T23:06:16.298Z,6.60
2023-04-29T23:08:44.483Z,7.25
2023-04-29T23:11:12.049Z,6.22
2023-04-29T23:13:39.243Z,6.18
2023-04-29T23:16:07.072Z,5.72
2023-04-29T23:18:34.494Z,5.32
2023-04-29T23:21:00.896Z,5.45
2023-04-29T23:23:27.293Z,5.45
2023-04-29T23:25:53.851Z,4.93
2023-04-29T23:28:20.887Z,6.10
2023-04-29T23:30:48.102Z,4.78
2023-04-29T23:33:14.649Z,5.55
2023-04-29T23:35:41.039Z,6.07
2023-04-29T23:38:07.598Z,6.00
2023-04-29T23:40:34.149Z,5.53
2023-04-29T23:43:00.629Z,5.68
2023-04-29T23:45:27.059Z,5.68
2023-04-29T23:47:53.518Z,4.95
2023-04-29T23:50:19.954Z,5.60
2023-04-29T23:52:46.389Z,6.00
2023-04-29T23:55:12.786Z,5.40
2023-04-29T23:57:39.202Z,5.05
